Time;durP1;ratioP1;P1;durP2;ratioP2;P2;SDS_P1;SDS_P2;PMS_P1;PMS_P2;Temp;Humidity;BMP_temperature;BMP_pressure;BME280_temperature;BME280_humidity;BME280_pressure;Samples;Min_cycle;Max_cycle;Signal;HPM_P1;HPM_P2
2022/05/02 00:00:45;;;;;;;4.50;4.10;;;;;;;;;;5084122;28;25056;-46
2022/05/02 00:03:10;;;;;;;5.40;4.28;;;;;;;;;;5086758;28;24430;-46
2022/05/02 00:05:35;;;;;;;5.00;4.50;;;;;;;;;;5086771;28;24419;-46
2022/05/02 00:08:01;;;;;;;4.70;4.30;;;;;;;;;;5085606;28;24513;-45
2022/05/02 00:10:26;;;;;;;4.50;4.10;;;;;;;;;;5085623;28;24702;-46
2022/05/02 00:12:51;;;;;;;4.70;4.30;;;;;;;;;;5085008;28;24468;-46
2022/05/02 00:15:16;;;;;;;4.57;4.18;;;;;;;;;;5085109;28;24788;-46
2022/05/02 00:17:57;;;;;;;6.60;4.93;;;;;;;;;;5084748;28;24529;-46
2022/05/02 00:20:24;;;;;;;6.13;4.75;;;;;;;;;;5087061;28;24440;-46
2022/05/02 00:22:49;;;;;;;5.15;4.65;;;;;;;;;;5084491;28;24433;-47
2022/05/02 00:25:15;;;;;;;5.50;5.00;;;;;;;;;;5083908;28;24414;-47
2022/05/02 00:27:40;;;;;;;4.93;4.57;;;;;;;;;;5087194;28;24510;-46
2022/05/02 00:30:07;;;;;;;5.00;4.60;;;;;;;;;;5083749;28;24967;-46
2022/05/02 00:32:32;;;;;;;5.30;4.40;;;;;;;;;;5083139;28;24987;-46
2022/05/02 00:34:57;;;;;;;4.70;4.30;;;;;;;;;;5073987;28;24492;-47
2022/05/02 00:37:22;;;;;;;4.70;4.30;;;;;;;;;;5080532;28;24784;-46
2022/05/02 00:39:47;;;;;;;5.47;4.80;;;;;;;;;;5083472;28;25053;-46
2022/05/02 00:42:12;;;;;;;5.10;4.60;;;;;;;;;;5085697;28;24433;-46
2022/05/02 00:44:41;;;;;;;5.03;4.53;;;;;;;;;;5085243;28;24518;-47
2022/05/02 00:47:06;;;;;;;5.75;4.50;;;;;;;;;;5079893;28;25426;-47
2022/05/02 00:49:31;;;;;;;5.50;4.47;;;;;;;;;;5083828;28;24475;-46
2022/05/02 00:51:56;;;;;;;5.90;4.80;;;;;;;;;;5085963;28;24430;-45
2022/05/02 00:54:22;;;;;;;5.18;4.57;;;;;;;;;;5084343;28;24521;-46
2022/05/02 00:56:47;;;;;;;5.17;4.70;;;;;;;;;;5081983;28;24467;-47
2022/05/02 00:59:14;;;;;;;4.90;4.50;;;;;;;;;;5082740;28;24476;-47
2022/05/02 01:01:40;;;;;;;6.30;4.70;;;;;;;;;;5083289;28;24475;-46
2022/05/02 01:04:05;;;;;;;5.22;4.72;;;;;;;;;;5082513;28;25138;-46
2022/05/02 01:09:14;;;;;;;4.70;4.30;;;;;;;;;;5083651;28;24947;-46
2022/05/02 01:11:39;;;;;;;5.00;4.60;;;;;;;;;;5085293;28;24426;-46
2022/05/02 01:14:07;;;;;;;5.03;4.63;;;;;;;;;;5084540;28;24777;-47
2022/05/02 01:16:32;;;;;;;5.10;4.60;;;;;;;;;;5084961;28;24426;-46
2022/05/02 01:18:58;;;;;;;5.00;4.60;;;;;;;;;;5084077;28;24421;-46
2022/05/02 01:21:29;;;;;;;5.20;4.70;;;;;;;;;;5084853;28;24422;-46
2022/05/02 01:23:55;;;;;;;5.20;4.70;;;;;;;;;;5084645;28;24436;-46
2022/05/02 01:26:20;;;;;;;5.28;4.88;;;;;;;;;;5083521;28;24425;-46
2022/05/02 01:28:49;;;;;;;5.30;4.80;;;;;;;;;;5078268;28;24418;-48
2022/05/02 01:31:15;;;;;;;6.25;4.82;;;;;;;;;;5083923;28;24469;-47
2022/05/02 01:33:40;;;;;;;5.70;5.20;;;;;;;;;;5083548;28;24430;-47
2022/05/02 01:36:06;;;;;;;5.17;4.77;;;;;;;;;;5083736;28;24429;-47
2022/05/02 01:38:31;;;;;;;5.73;5.23;;;;;;;;;;5083639;28;24713;-47
2022/05/02 01:40:56;;;;;;;5.83;5.33;;;;;;;;;;5083340;28;24418;-47
2022/05/02 01:43:21;;;;;;;6.10;5.50;;;;;;;;;;5081636;28;24422;-47
2022/05/02 01:45:46;;;;;;;6.23;5.63;;;;;;;;;;5083900;28;24425;-47
2022/05/02 01:48:12;;;;;;;5.72;5.13;;;;;;;;;;5083973;28;24414;-47
2022/05/02 01:50:37;;;;;;;5.67;5.17;;;;;;;;;;5078781;28;24423;-47
2022/05/02 01:53:02;;;;;;;6.35;5.75;;;;;;;;;;5074912;28;24518;-47
2022/05/02 01:55:27;;;;;;;5.50;5.00;;;;;;;;;;5083604;28;25050;-47
2022/05/02 01:57:52;;;;;;;5.30;4.90;;;;;;;;;;5083535;28;24475;-47
2022/05/02 02:00:18;;;;;;;5.53;4.95;;;;;;;;;;5082230;28;24521;-47
2022/05/02 02:02:43;;;;;;;5.90;5.30;;;;;;;;;;5083396;28;24441;-46
2022/05/02 02:07:52;;;;;;;5.60;5.00;;;;;;;;;;5081312;28;25033;-46
2022/05/02 02:10:17;;;;;;;7.97;5.40;;;;;;;;;;5083561;28;25205;-46
2022/05/02 02:12:42;;;;;;;6.50;5.40;;;;;;;;;;5085964;28;24507;-47
2022/05/02 02:15:08;;;;;;;5.50;4.90;;;;;;;;;;5086266;28;24433;-47
2022/05/02 02:17:33;;;;;;;6.27;5.67;;;;;;;;;;5088495;28;24414;-47
2022/05/02 02:19:58;;;;;;;5.70;5.20;;;;;;;;;;5086822;28;24437;-46
2022/05/02 02:22:24;;;;;;;5.90;5.40;;;;;;;;;;5087953;28;24663;-46
2022/05/02 02:24:49;;;;;;;6.10;5.50;;;;;;;;;;5088219;28;24443;-46
2022/05/02 02:27:14;;;;;;;5.90;5.40;;;;;;;;;;5089331;28;24976;-45
2022/05/02 02:29:39;;;;;;;5.70;5.20;;;;;;;;;;5086816;28;24785;-46
2022/05/02 02:32:05;;;;;;;5.53;5.03;;;;;;;;;;5083403;28;24912;-46
2022/05/02 02:34:30;;;;;;;5.70;5.20;;;;;;;;;;5085213;28;24777;-47
2022/05/02 02:36:56;;;;;;;6.83;5.40;;;;;;;;;;5079963;28;24861;-46
2022/05/02 02:39:21;;;;;;;5.72;5.13;;;;;;;;;;5085290;28;25003;-46
2022/05/02 02:41:46;;;;;;;5.90;5.30;;;;;;;;;;5085815;28;24450;-47
2022/05/02 02:44:11;;;;;;;6.28;5.30;;;;;;;;;;5086108;28;24441;-46
2022/05/02 02:46:36;;;;;;;6.65;5.35;;;;;;;;;;5082943;28;24768;-47
2022/05/02 02:49:02;;;;;;;6.00;5.00;;;;;;;;;;5087766;28;24493;-46
2022/05/02 02:51:27;;;;;;;7.17;6.07;;;;;;;;;;5088673;28;24430;-46
2022/05/02 02:53:52;;;;;;;5.95;5.35;;;;;;;;;;5084541;28;24501;-46
2022/05/02 02:56:17;;;;;;;5.75;5.20;;;;;;;;;;5088504;28;24446;-47
2022/05/02 02:58:42;;;;;;;6.60;6.00;;;;;;;;;;5085921;28;24479;-47
2022/05/02 03:01:07;;;;;;;5.60;5.10;;;;;;;;;;5086620;28;25038;-46
2022/05/02 03:03:33;;;;;;;6.10;5.50;;;;;;;;;;5084738;28;24452;-46
2022/05/02 03:06:05;;;;;;;6.20;5.60;;;;;;;;;;5086137;28;24413;-46
2022/05/02 03:08:33;;;;;;;5.90;5.20;;;;;;;;;;5087364;28;24526;-46
2022/05/02 03:10:58;;;;;;;7.85;6.15;;;;;;;;;;5087987;28;25184;-47
2022/05/02 03:13:24;;;;;;;6.80;5.33;;;;;;;;;;5087854;28;25050;-46
2022/05/02 03:15:49;;;;;;;8.45;5.88;;;;;;;;;;5084989;28;24429;-46
2022/05/02 03:18:14;;;;;;;7.40;5.73;;;;;;;;;;5085685;28;24517;-46
2022/05/02 03:20:39;;;;;;;6.40;5.80;;;;;;;;;;5086127;28;24530;-47
2022/05/02 03:23:05;;;;;;;7.70;5.90;;;;;;;;;;5086460;28;24423;-47
2022/05/02 03:25:30;;;;;;;6.30;5.70;;;;;;;;;;5084534;28;24437;-47
2022/05/02 03:27:55;;;;;;;7.18;5.72;;;;;;;;;;5087179;28;24449;-46
2022/05/02 03:30:21;;;;;;;6.20;5.60;;;;;;;;;;5084590;28;24437;-46
2022/05/02 03:32:47;;;;;;;7.90;5.70;;;;;;;;;;5086102;28;24462;-46
2022/05/02 03:35:14;;;;;;;6.40;5.80;;;;;;;;;;5084884;28;21356;-46
2022/05/02 03:37:39;;;;;;;6.63;5.38;;;;;;;;;;5081283;28;24429;-46
2022/05/02 03:40:04;;;;;;;6.40;5.80;;;;;;;;;;5088174;28;25059;-46
2022/05/02 03:42:30;;;;;;;7.00;5.80;;;;;;;;;;5085606;28;24434;-46
2022/05/02 03:44:55;;;;;;;6.30;5.80;;;;;;;;;;5086581;28;24521;-45
2022/05/02 03:47:20;;;;;;;5.80;5.30;;;;;;;;;;5083508;28;24417;-46
2022/05/02 03:49:45;;;;;;;6.20;5.60;;;;;;;;;;5087002;28;24425;-46
2022/05/02 03:52:10;;;;;;;6.93;6.03;;;;;;;;;;5088203;28;24476;-46
2022/05/02 03:54:35;;;;;;;5.88;5.30;;;;;;;;;;5086612;28;24414;-46
2022/05/02 03:57:01;;;;;;;6.47;5.87;;;;;;;;;;5086258;28;24457;-46
2022/05/02 03:59:26;;;;;;;6.53;5.87;;;;;;;;;;5088354;28;24449;-46
2022/05/02 04:01:51;;;;;;;6.50;5.90;;;;;;;;;;5086000;28;24514;-46
2022/05/02 04:04:16;;;;;;;6.40;5.80;;;;;;;;;;5083612;28;24499;-46
2022/05/02 04:06:41;;;;;;;6.90;6.30;;;;;;;;;;5083268;28;24430;-46
2022/05/02 04:09:06;;;;;;;8.50;6.90;;;;;;;;;;5087122;28;24840;-47
2022/05/02 04:11:32;;;;;;;6.97;6.37;;;;;;;;;;5088474;28;24467;-47
2022/05/02 04:13:57;;;;;;;6.67;6.07;;;;;;;;;;5087031;28;24873;-46
2022/05/02 04:16:22;;;;;;;6.97;6.28;;;;;;;;;;5081995;28;24459;-46
2022/05/02 04:18:48;;;;;;;6.63;6.03;;;;;;;;;;5082970;28;24505;-47
2022/05/02 04:21:13;;;;;;;7.97;6.50;;;;;;;;;;5086844;28;24434;-46
2022/05/02 04:23:38;;;;;;;7.55;6.30;;;;;;;;;;5086976;28;25024;-46
2022/05/02 04:26:03;;;;;;;10.45;8.10;;;;;;;;;;5087298;28;24975;-46
2022/05/02 04:28:28;;;;;;;7.80;6.93;;;;;;;;;;5079049;28;24970;-47
2022/05/02 04:30:54;;;;;;;8.20;7.30;;;;;;;;;;5077662;28;24544;-46
2022/05/02 04:33:19;;;;;;;8.20;7.50;;;;;;;;;;5083591;28;24525;-46
2022/05/02 04:35:44;;;;;;;9.30;8.20;;;;;;;;;;5073054;28;24444;-46
2022/05/02 04:38:09;;;;;;;7.40;6.80;;;;;;;;;;5080076;28;24430;-46
2022/05/02 04:40:35;;;;;;;7.75;7.00;;;;;;;;;;5080645;28;24619;-45
2022/05/02 04:43:00;;;;;;;7.53;6.70;;;;;;;;;;5071437;28;24534;-46
2022/05/02 04:45:25;;;;;;;7.25;6.65;;;;;;;;;;5084364;28;24522;-46
2022/05/02 04:47:50;;;;;;;8.40;6.88;;;;;;;;;;5078533;28;24466;-46
2022/05/02 04:50:15;;;;;;;8.03;7.20;;;;;;;;;;5078959;28;24425;-46
2022/05/02 04:52:40;;;;;;;7.60;6.90;;;;;;;;;;5080433;28;24530;-47
2022/05/02 04:55:06;;;;;;;7.70;7.00;;;;;;;;;;5082726;28;24537;-46
2022/05/02 04:57:31;;;;;;;7.60;6.30;;;;;;;;;;5078699;28;24461;-46
2022/05/02 04:59:56;;;;;;;7.70;6.90;;;;;;;;;;5075297;28;25022;-47
2022/05/02 05:02:21;;;;;;;7.10;6.50;;;;;;;;;;5078766;28;24521;-47
2022/05/02 05:04:46;;;;;;;6.83;6.23;;;;;;;;;;5080674;28;24523;-47
2022/05/02 05:07:12;;;;;;;7.05;6.35;;;;;;;;;;5083389;28;25116;-47
2022/05/02 05:09:37;;;;;;;7.00;6.30;;;;;;;;;;5080274;28;25049;-47
2022/05/02 05:12:05;;;;;;;8.18;7.38;;;;;;;;;;5076940;28;24426;-47
2022/05/02 05:17:33;;;;;;;7.30;6.70;;;;;;;;;;5080481;28;25097;-46
2022/05/02 05:20:21;;;;;;;7.93;6.65;;;;;;;;;;5077873;28;25007;-47
2022/05/02 05:23:24;;;;;;;7.40;6.70;;;;;;;;;;5064631;28;24468;-47
2022/05/02 05:25:57;;;;;;;7.32;6.60;;;;;;;;;;4995939;28;24412;-47
2022/05/02 05:28:40;;;;;;;7.90;7.10;;;;;;;;;;5000494;28;24428;-47
2022/05/02 05:31:18;;;;;;;7.90;7.00;;;;;;;;;;5054745;28;24441;-47
2022/05/02 05:33:52;;;;;;;7.57;6.78;;;;;;;;;;5086876;28;24391;-47
2022/05/02 05:36:34;;;;;;;7.32;6.63;;;;;;;;;;5086850;28;24435;-47
2022/05/02 05:39:07;;;;;;;7.50;6.80;;;;;;;;;;5086493;28;24508;-47
2022/05/02 05:41:45;;;;;;;8.27;7.43;;;;;;;;;;5081247;28;24435;-47
2022/05/02 05:44:26;;;;;;;7.00;6.30;;;;;;;;;;5072274;28;24452;-46
2022/05/02 05:46:56;;;;;;;7.67;6.97;;;;;;;;;;5083538;28;24420;-46
2022/05/02 05:49:41;;;;;;;7.20;6.50;;;;;;;;;;5081729;28;24449;-46
2022/05/02 05:52:11;;;;;;;7.38;6.63;;;;;;;;;;5081035;28;24415;-46
2022/05/02 05:54:58;;;;;;;8.02;7.05;;;;;;;;;;5084150;28;24874;-46
2022/05/02 05:57:42;;;;;;;7.63;6.30;;;;;;;;;;5082298;28;24441;-47
2022/05/02 06:00:12;;;;;;;7.80;6.50;;;;;;;;;;5085972;28;24781;-46
2022/05/02 06:02:55;;;;;;;6.73;5.97;;;;;;;;;;5086173;28;24780;-47
2022/05/02 06:05:20;;;;;;;8.57;6.88;;;;;;;;;;5082002;28;24521;-46
2022/05/02 06:07:46;;;;;;;8.50;7.75;;;;;;;;;;5084413;28;24899;-46
2022/05/02 06:10:13;;;;;;;9.47;7.07;;;;;;;;;;5086566;28;24417;-47
2022/05/02 06:12:39;;;;;;;7.82;7.13;;;;;;;;;;5079815;28;24426;-47
2022/05/02 06:20:38;;;;;;;7.75;7.05;;;;;;;;;;5085879;28;25034;-46
2022/05/02 06:23:06;;;;;;;8.10;7.30;;;;;;;;;;5071971;28;24442;-46
2022/05/02 06:25:33;;;;;;;7.82;7.13;;;;;;;;;;5085272;28;24399;-46
2022/05/02 06:27:58;;;;;;;7.80;7.10;;;;;;;;;;5086720;28;24697;-46
2022/05/02 06:30:23;;;;;;;7.50;6.80;;;;;;;;;;5083295;28;24454;-46
2022/05/02 06:32:50;;;;;;;9.60;8.50;;;;;;;;;;5081459;28;24536;-45
2022/05/02 06:35:15;;;;;;;7.50;6.70;;;;;;;;;;5084979;28;25078;-47
2022/05/02 06:38:00;;;;;;;7.50;6.65;;;;;;;;;;5084065;28;24513;-47
2022/05/02 06:40:26;;;;;;;7.68;6.97;;;;;;;;;;5081827;28;24986;-47
2022/05/02 06:43:08;;;;;;;8.23;7.43;;;;;;;;;;5074488;28;24450;-47
2022/05/02 06:45:43;;;;;;;7.72;6.90;;;;;;;;;;5075105;28;24789;-47
2022/05/02 06:48:11;;;;;;;8.07;6.80;;;;;;;;;;5081808;28;24407;-47
2022/05/02 06:50:38;;;;;;;8.05;7.00;;;;;;;;;;5086420;28;24394;-46
2022/05/02 06:53:06;;;;;;;8.20;7.40;;;;;;;;;;5084557;28;24509;-46
2022/05/02 06:55:36;;;;;;;7.82;7.13;;;;;;;;;;5086296;28;24457;-47
2022/05/02 06:58:20;;;;;;;9.18;8.38;;;;;;;;;;5085699;28;24996;-46
2022/05/02 07:01:03;;;;;;;8.70;7.80;;;;;;;;;;5076872;28;24445;-46
2022/05/02 07:03:42;;;;;;;8.20;7.50;;;;;;;;;;5074908;28;24426;-46
2022/05/02 07:06:13;;;;;;;8.87;7.97;;;;;;;;;;5089991;28;24397;-47
2022/05/02 07:08:58;;;;;;;7.63;6.93;;;;;;;;;;5089583;28;24410;-47
2022/05/02 07:11:31;;;;;;;9.82;8.82;;;;;;;;;;5089066;28;24430;-47
2022/05/02 07:14:02;;;;;;;8.13;7.32;;;;;;;;;;5084090;28;24421;-47
2022/05/02 07:16:29;;;;;;;8.20;7.38;;;;;;;;;;5070274;28;24472;-47
2022/05/02 07:19:13;;;;;;;7.90;7.10;;;;;;;;;;5069503;28;24461;-47
2022/05/02 07:21:56;;;;;;;8.38;7.60;;;;;;;;;;5087412;28;24456;-47
2022/05/02 07:24:40;;;;;;;7.95;6.85;;;;;;;;;;5087453;28;24430;-47
2022/05/02 07:27:25;;;;;;;7.90;7.20;;;;;;;;;;5089571;28;24997;-47
2022/05/02 07:29:51;;;;;;;8.23;7.47;;;;;;;;;;5089190;28;24485;-47
2022/05/02 07:32:17;;;;;;;7.83;7.10;;;;;;;;;;5089351;28;24809;-47
2022/05/02 07:34:42;;;;;;;7.90;7.20;;;;;;;;;;5088021;28;24746;-46
2022/05/02 07:37:08;;;;;;;7.30;6.70;;;;;;;;;;5088572;28;24994;-46
2022/05/02 07:39:35;;;;;;;6.93;6.33;;;;;;;;;;5089503;28;24406;-46
2022/05/02 07:42:03;;;;;;;7.60;6.90;;;;;;;;;;5094379;28;25031;-46
2022/05/02 07:44:30;;;;;;;7.85;7.10;;;;;;;;;;5093632;28;24528;-46
2022/05/02 07:46:57;;;;;;;7.10;6.40;;;;;;;;;;5072146;28;24773;-47
2022/05/02 07:49:23;;;;;;;7.00;6.40;;;;;;;;;;5087675;28;24559;-46
2022/05/02 07:51:51;;;;;;;7.50;6.80;;;;;;;;;;5089069;28;25027;-47
2022/05/02 07:54:26;;;;;;;7.65;6.95;;;;;;;;;;5089018;28;24391;-46
2022/05/02 07:56:51;;;;;;;8.98;7.70;;;;;;;;;;5088437;28;24414;-47
2022/05/02 07:59:19;;;;;;;7.10;6.50;;;;;;;;;;5089023;28;24398;-46
2022/05/02 08:01:44;;;;;;;7.30;6.60;;;;;;;;;;5088959;28;24948;-46
2022/05/02 08:04:13;;;;;;;9.57;8.67;;;;;;;;;;5088047;28;24422;-46
2022/05/02 08:06:46;;;;;;;7.93;7.13;;;;;;;;;;5081336;28;24435;-47
2022/05/02 08:09:13;;;;;;;8.00;7.20;;;;;;;;;;5068672;28;24690;-46
2022/05/02 08:11:45;;;;;;;7.40;6.70;;;;;;;;;;5067647;28;24528;-46
2022/05/02 08:14:15;;;;;;;7.60;6.90;;;;;;;;;;5068461;28;24411;-46
2022/05/02 08:16:48;;;;;;;8.10;7.30;;;;;;;;;;5074025;28;25081;-47
2022/05/02 08:19:38;;;;;;;7.35;6.70;;;;;;;;;;5088332;28;24490;-47
2022/05/02 08:28:03;;;;;;;8.02;7.22;;;;;;;;;;5088047;28;24828;-46
2022/05/02 08:30:32;;;;;;;9.85;8.23;;;;;;;;;;5085550;28;25015;-46
2022/05/02 08:33:03;;;;;;;7.65;6.95;;;;;;;;;;5087024;28;24405;-45
2022/05/02 08:35:33;;;;;;;7.55;6.82;;;;;;;;;;5086269;28;24420;-46
2022/05/02 08:38:17;;;;;;;8.10;7.30;;;;;;;;;;5070091;28;24536;-46
2022/05/02 08:40:42;;;;;;;8.50;7.78;;;;;;;;;;5063927;28;24876;-46
2022/05/02 08:43:08;;;;;;;8.30;7.60;;;;;;;;;;5078590;28;24505;-45
2022/05/02 08:45:34;;;;;;;7.73;6.50;;;;;;;;;;5087906;28;24439;-46
2022/05/02 08:48:18;;;;;;;8.90;8.10;;;;;;;;;;5087791;28;24415;-46
2022/05/02 08:51:02;;;;;;;8.13;7.43;;;;;;;;;;5087906;28;25017;-46
2022/05/02 08:53:46;;;;;;;7.70;7.00;;;;;;;;;;5086320;28;24426;-46
2022/05/02 08:56:14;;;;;;;7.90;7.10;;;;;;;;;;5088013;28;24401;-46
2022/05/02 08:58:54;;;;;;;7.50;6.80;;;;;;;;;;5087194;28;24413;-46
2022/05/02 09:01:49;;;;;;;9.05;8.23;;;;;;;;;;5067593;28;25017;-46
2022/05/02 09:04:38;;;;;;;9.57;8.67;;;;;;;;;;5050427;28;24523;-46
2022/05/02 09:07:03;;;;;;;8.13;7.33;;;;;;;;;;5067913;28;24414;-47
2022/05/02 09:09:47;;;;;;;9.35;8.07;;;;;;;;;;5070833;28;24453;-47
2022/05/02 09:12:24;;;;;;;9.50;8.50;;;;;;;;;;5077952;28;24434;-47
2022/05/02 09:14:52;;;;;;;9.55;8.65;;;;;;;;;;5068287;28;24447;-47
2022/05/02 09:17:42;;;;;;;7.80;7.10;;;;;;;;;;5067270;28;24411;-46
2022/05/02 09:20:26;;;;;;;6.85;6.25;;;;;;;;;;5067047;28;24497;-47
2022/05/02 09:22:57;;;;;;;7.97;7.20;;;;;;;;;;5080039;28;24441;-46
2022/05/02 09:25:43;;;;;;;7.90;7.10;;;;;;;;;;5073434;28;24872;-46
2022/05/02 09:28:11;;;;;;;8.40;6.83;;;;;;;;;;5066498;28;24411;-47
2022/05/02 09:30:48;;;;;;;7.20;6.50;;;;;;;;;;5066842;28;24459;-47
2022/05/02 09:33:14;;;;;;;8.30;7.50;;;;;;;;;;5067067;28;24391;-47
2022/05/02 09:35:59;;;;;;;7.57;6.50;;;;;;;;;;5083934;28;24429;-46
2022/05/02 09:38:25;;;;;;;10.90;7.10;;;;;;;;;;5086213;28;24521;-47
2022/05/02 09:40:57;;;;;;;8.20;7.40;;;;;;;;;;5087092;28;24409;-48
2022/05/02 09:49:33;;;;;;;8.20;7.40;;;;;;;;;;5086790;28;24481;-47
2022/05/02 09:49:47;;;;;;;8.68;7.88;;;;;;;;;;5066819;28;24385;-46
2022/05/02 09:52:14;;;;;;;8.90;7.97;;;;;;;;;;5066616;28;24433;-46
2022/05/02 09:57:32;;;;;;;9.18;7.63;;;;;;;;;;5068376;28;24497;-46
2022/05/02 10:02:46;;;;;;;7.63;6.82;;;;;;;;;;5086650;28;24410;-46
2022/05/02 10:05:15;;;;;;;9.40;8.15;;;;;;;;;;5086747;28;25133;-46
2022/05/02 10:07:45;;;;;;;8.70;7.90;;;;;;;;;;5085514;28;24410;-47
2022/05/02 10:10:13;;;;;;;7.95;7.15;;;;;;;;;;5086559;28;24401;-47
2022/05/02 10:12:41;;;;;;;7.00;6.40;;;;;;;;;;5086353;28;24773;-47
2022/05/02 10:15:18;;;;;;;7.10;6.30;;;;;;;;;;5086495;28;24437;-46
2022/05/02 10:17:52;;;;;;;8.90;7.13;;;;;;;;;;5084538;28;24429;-46
2022/05/02 10:20:19;;;;;;;8.53;6.93;;;;;;;;;;5080541;28;24414;-47
2022/05/02 10:22:45;;;;;;;7.82;7.00;;;;;;;;;;5066604;28;24413;-47
2022/05/02 10:25:17;;;;;;;7.80;7.13;;;;;;;;;;5079712;28;24483;-46
2022/05/02 10:27:55;;;;;;;7.72;6.80;;;;;;;;;;5084853;28;24438;-46
2022/05/02 10:30:20;;;;;;;7.78;6.60;;;;;;;;;;5085225;28;25008;-47
2022/05/02 10:32:53;;;;;;;8.70;7.30;;;;;;;;;;5085720;28;24413;-47
2022/05/02 10:35:20;;;;;;;7.90;7.20;;;;;;;;;;5087114;28;24398;-47
2022/05/02 10:37:59;;;;;;;7.88;7.07;;;;;;;;;;5087254;28;24407;-47
2022/05/02 10:40:29;;;;;;;7.47;6.78;;;;;;;;;;5069929;28;24448;-46
2022/05/02 10:42:56;;;;;;;7.45;6.75;;;;;;;;;;5069782;28;24565;-47
2022/05/02 10:45:24;;;;;;;9.63;7.80;;;;;;;;;;5070533;28;24402;-47
2022/05/02 10:47:53;;;;;;;8.52;7.40;;;;;;;;;;5079035;28;24501;-47
2022/05/02 10:50:25;;;;;;;8.23;7.10;;;;;;;;;;5088968;28;24544;-46
2022/05/02 10:53:13;;;;;;;10.10;8.00;;;;;;;;;;5090038;28;24944;-46
2022/05/02 10:55:39;;;;;;;9.30;8.40;;;;;;;;;;5089773;28;24440;-46
2022/05/02 10:58:07;;;;;;;9.70;8.80;;;;;;;;;;5090337;28;24497;-45
2022/05/02 11:00:33;;;;;;;8.43;7.63;;;;;;;;;;5086049;28;24983;-46
2022/05/02 11:03:24;;;;;;;7.82;7.00;;;;;;;;;;5090192;28;24414;-46
2022/05/02 11:06:01;;;;;;;7.32;6.72;;;;;;;;;;5090256;28;24444;-46
2022/05/02 11:08:30;;;;;;;8.07;7.30;;;;;;;;;;5090740;28;24378;-46
2022/05/02 11:11:02;;;;;;;7.50;6.80;;;;;;;;;;5088392;28;24410;-46
2022/05/02 11:13:35;;;;;;;8.77;7.03;;;;;;;;;;5089313;28;24430;-47
2022/05/02 11:16:16;;;;;;;9.07;8.00;;;;;;;;;;5090268;28;24402;-47
2022/05/02 11:21:40;;;;;;;8.50;7.70;;;;;;;;;;5089377;28;24416;-48
2022/05/02 11:24:16;;;;;;;8.57;7.68;;;;;;;;;;5089293;28;25085;-46
2022/05/02 11:26:57;;;;;;;8.82;7.97;;;;;;;;;;5089041;28;24822;-46
2022/05/02 11:29:31;;;;;;;8.43;7.72;;;;;;;;;;5087469;28;24430;-47
2022/05/02 11:32:01;;;;;;;8.40;7.50;;;;;;;;;;5069251;28;24482;-47
2022/05/02 11:34:35;;;;;;;8.93;8.13;;;;;;;;;;5069073;28;24498;-46
2022/05/02 11:37:01;;;;;;;8.15;7.55;;;;;;;;;;5069447;28;24418;-47
2022/05/02 11:39:46;;;;;;;6.23;5.73;;;;;;;;;;5087957;28;24449;-46
2022/05/02 11:42:14;;;;;;;7.47;6.88;;;;;;;;;;5088117;28;24484;-48
2022/05/02 11:44:58;;;;;;;8.85;7.90;;;;;;;;;;5089256;28;24425;-45
2022/05/02 11:47:42;;;;;;;9.10;8.20;;;;;;;;;;5087851;28;24979;-45
2022/05/02 11:50:10;;;;;;;7.88;6.95;;;;;;;;;;5084573;28;25466;-45
2022/05/02 11:52:36;;;;;;;8.50;7.80;;;;;;;;;;5088918;28;24473;-45
2022/05/02 11:55:02;;;;;;;8.10;7.30;;;;;;;;;;5088833;28;24536;-47
2022/05/02 11:57:34;;;;;;;7.63;6.93;;;;;;;;;;5088822;28;24397;-46
2022/05/02 12:00:11;;;;;;;8.20;7.50;;;;;;;;;;5088672;28;24545;-45
2022/05/02 12:02:36;;;;;;;8.70;7.90;;;;;;;;;;5089000;28;24454;-45
2022/05/02 12:05:03;;;;;;;9.50;8.60;;;;;;;;;;5088860;28;24390;-46
2022/05/02 12:07:30;;;;;;;8.60;7.53;;;;;;;;;;5088510;28;24395;-46
2022/05/02 12:10:08;;;;;;;8.30;7.50;;;;;;;;;;5088366;28;24870;-46
2022/05/02 12:12:34;;;;;;;7.85;6.95;;;;;;;;;;5076031;28;24525;-46
2022/05/02 12:15:10;;;;;;;6.40;5.80;;;;;;;;;;5068152;28;24695;-47
2022/05/02 12:17:50;;;;;;;9.70;7.75;;;;;;;;;;5069811;28;24398;-46
2022/05/02 12:20:22;;;;;;;9.35;7.88;;;;;;;;;;5087631;28;24580;-46
2022/05/02 12:22:52;;;;;;;7.18;6.57;;;;;;;;;;5088007;28;24502;-45
2022/05/02 12:25:18;;;;;;;8.90;8.10;;;;;;;;;;5071720;28;24442;-46
2022/05/02 12:27:48;;;;;;;7.80;7.00;;;;;;;;;;5068175;28;25194;-47
2022/05/02 12:30:13;;;;;;;8.40;7.70;;;;;;;;;;5066728;28;24469;-46
2022/05/02 12:32:38;;;;;;;9.30;8.50;;;;;;;;;;5065212;28;24398;-46
2022/05/02 12:35:05;;;;;;;6.33;5.70;;;;;;;;;;5067720;28;24860;-46
2022/05/02 12:37:36;;;;;;;8.43;7.63;;;;;;;;;;5068214;28;24422;-46
2022/05/02 12:40:11;;;;;;;7.85;7.20;;;;;;;;;;5067062;28;24406;-47
2022/05/02 12:42:49;;;;;;;9.45;7.00;;;;;;;;;;5067524;28;24480;-46
2022/05/02 12:45:16;;;;;;;7.15;6.53;;;;;;;;;;5067592;28;24924;-46
2022/05/02 12:47:44;;;;;;;8.32;7.40;;;;;;;;;;5068976;28;24561;-46
2022/05/02 12:50:21;;;;;;;7.95;7.25;;;;;;;;;;5067109;28;24928;-46
2022/05/02 12:52:54;;;;;;;7.95;7.25;;;;;;;;;;5067253;28;24429;-46
2022/05/02 12:55:20;;;;;;;7.22;6.63;;;;;;;;;;5067656;28;24456;-46
2022/05/02 13:00:39;;;;;;;6.80;6.10;;;;;;;;;;5067331;28;24398;-46
2022/05/02 13:03:10;;;;;;;6.85;6.25;;;;;;;;;;5067127;28;24986;-46
2022/05/02 13:05:38;;;;;;;6.07;5.57;;;;;;;;;;5067403;28;24800;-46
2022/05/02 13:08:08;;;;;;;6.50;6.00;;;;;;;;;;5067915;28;24467;-46
2022/05/02 13:10:33;;;;;;;7.32;6.65;;;;;;;;;;5066772;28;24395;-47
2022/05/02 13:13:02;;;;;;;7.70;7.10;;;;;;;;;;5066847;28;24445;-46
2022/05/02 13:15:29;;;;;;;7.50;6.90;;;;;;;;;;5067049;28;24956;-45
2022/05/02 13:17:58;;;;;;;8.43;7.63;;;;;;;;;;5081662;28;25220;-45
2022/05/02 13:20:25;;;;;;;7.88;7.28;;;;;;;;;;5069254;28;24497;-45
2022/05/02 13:22:58;;;;;;;8.07;7.30;;;;;;;;;;5066955;28;24414;-46
2022/05/02 13:25:43;;;;;;;7.00;6.40;;;;;;;;;;5066812;28;24688;-46
2022/05/02 13:28:09;;;;;;;6.53;6.03;;;;;;;;;;5067068;28;24511;-46
2022/05/02 13:30:34;;;;;;;6.73;6.03;;;;;;;;;;5067624;28;25309;-45
2022/05/02 13:33:06;;;;;;;7.30;6.70;;;;;;;;;;5067142;28;24397;-46
2022/05/02 13:35:34;;;;;;;7.38;6.70;;;;;;;;;;5066502;28;24556;-47
2022/05/02 13:38:10;;;;;;;6.40;5.90;;;;;;;;;;5067063;28;24386;-45
2022/05/02 13:40:38;;;;;;;7.10;6.40;;;;;;;;;;5067693;28;24422;-46
2022/05/02 13:43:18;;;;;;;6.03;5.53;;;;;;;;;;5066620;28;24434;-45
2022/05/02 13:45:46;;;;;;;8.70;7.90;;;;;;;;;;5066764;28;24434;-46
2022/05/02 13:48:14;;;;;;;7.85;7.15;;;;;;;;;;5066497;28;24760;-46
2022/05/02 13:50:41;;;;;;;8.23;7.53;;;;;;;;;;5067796;28;24538;-45
2022/05/02 13:53:20;;;;;;;9.15;7.63;;;;;;;;;;5066122;28;24403;-46
2022/05/02 13:55:59;;;;;;;7.75;7.15;;;;;;;;;;5066753;28;24475;-46
2022/05/02 13:58:42;;;;;;;7.57;6.88;;;;;;;;;;5067672;28;24510;-46
2022/05/02 14:01:29;;;;;;;7.60;6.90;;;;;;;;;;5084630;28;24504;-46
2022/05/02 14:04:00;;;;;;;7.10;6.40;;;;;;;;;;5084479;28;24428;-47
2022/05/02 14:06:30;;;;;;;7.07;6.57;;;;;;;;;;5085282;28;24559;-45
2022/05/02 14:08:56;;;;;;;6.78;6.28;;;;;;;;;;5084205;28;24878;-46
2022/05/02 14:11:27;;;;;;;6.80;6.20;;;;;;;;;;5082634;28;24441;-46
2022/05/02 14:14:06;;;;;;;9.00;8.30;;;;;;;;;;5084292;28;24444;-46
2022/05/02 14:16:35;;;;;;;6.00;5.50;;;;;;;;;;5071757;28;24406;-47
2022/05/02 14:19:00;;;;;;;6.30;5.80;;;;;;;;;;5074502;28;24426;-47
2022/05/02 14:21:26;;;;;;;6.07;5.57;;;;;;;;;;5081535;28;24991;-46
2022/05/02 14:23:55;;;;;;;7.95;7.15;;;;;;;;;;5083703;28;24789;-46
2022/05/02 14:26:21;;;;;;;6.47;5.87;;;;;;;;;;5085197;28;24475;-47
2022/05/02 14:28:47;;;;;;;7.30;6.80;;;;;;;;;;5085847;28;24564;-47
2022/05/02 14:31:13;;;;;;;7.20;6.60;;;;;;;;;;5076436;28;24422;-46
2022/05/02 14:33:39;;;;;;;7.95;7.28;;;;;;;;;;5072841;28;24478;-45
2022/05/02 14:36:08;;;;;;;7.22;6.72;;;;;;;;;;5085264;28;25055;-46
2022/05/02 14:38:36;;;;;;;6.53;6.05;;;;;;;;;;5086812;28;24415;-46
2022/05/02 14:41:02;;;;;;;6.70;6.20;;;;;;;;;;5085492;28;24824;-46
2022/05/02 14:43:27;;;;;;;7.10;6.50;;;;;;;;;;5084995;28;24998;-46
2022/05/02 14:45:53;;;;;;;6.87;6.17;;;;;;;;;;5086067;28;24935;-46
2022/05/02 14:48:20;;;;;;;6.30;5.80;;;;;;;;;;5086247;28;24523;-46
2022/05/02 14:50:46;;;;;;;6.28;5.78;;;;;;;;;;5085352;28;24422;-46
2022/05/02 14:53:12;;;;;;;6.00;5.50;;;;;;;;;;5072076;28;25022;-46
2022/05/02 14:55:40;;;;;;;5.82;5.30;;;;;;;;;;5066001;28;24395;-46
2022/05/02 14:58:06;;;;;;;7.38;6.78;;;;;;;;;;5066101;28;24391;-46
2022/05/02 15:00:33;;;;;;;6.88;6.38;;;;;;;;;;5068864;28;24414;-46
2022/05/02 15:02:59;;;;;;;6.40;5.90;;;;;;;;;;5084179;28;24995;-46
2022/05/02 15:05:25;;;;;;;6.85;6.28;;;;;;;;;;5085997;28;24436;-46
2022/05/02 15:07:55;;;;;;;6.83;6.23;;;;;;;;;;5084622;28;25231;-46
2022/05/02 15:10:40;;;;;;;7.03;6.32;;;;;;;;;;5086090;28;24975;-46
2022/05/02 15:13:24;;;;;;;5.90;5.50;;;;;;;;;;5080644;28;24430;-46
2022/05/02 15:15:57;;;;;;;6.13;5.53;;;;;;;;;;5065836;28;24422;-46
2022/05/02 15:18:24;;;;;;;7.30;6.70;;;;;;;;;;5066006;28;24419;-46
2022/05/02 15:20:53;;;;;;;6.90;6.40;;;;;;;;;;5065658;28;24430;-47
2022/05/02 15:23:22;;;;;;;6.78;6.18;;;;;;;;;;5084589;28;24434;-46
2022/05/02 15:25:51;;;;;;;6.35;5.85;;;;;;;;;;5089681;28;24455;-47
2022/05/02 15:36:46;;;;;;;5.80;5.30;;;;;;;;;;5089355;28;24381;-46
2022/05/02 15:39:12;;;;;;;6.40;5.90;;;;;;;;;;5089090;28;24447;-45
2022/05/02 15:41:41;;;;;;;7.00;6.40;;;;;;;;;;5089604;28;24398;-46